sensor_id;sensor_type;location;lat;lon;timestamp;temperature;humidity
7694;DHT22;3889;48.162;11.510;2022-07-01T00:01:46;18.70;99.90
7694;DHT22;3889;48.162;11.510;2022-07-01T00:04:16;18.70;99.90
7694;DHT22;3889;48.162;11.510;2022-07-01T00:06:44;18.80;99.90
7694;DHT22;3889;48.162;11.510;2022-07-01T00:09:12;18.90;99.90
7694;DHT22;3889;48.162;11.510;2022-07-01T00:11:40;19.00;99.90
7694;DHT22;3889;48.162;11.510;2022-07-01T00:14:08;19.10;99.90
7694;DHT22;3889;48.162;11.510;2022-07-01T00:16:36;19.10;99.90
7694;DHT22;3889;48.162;11.510;2022-07-01T00:19:04;19.10;99.90
7694;DHT22;3889;48.162;11.510;2022-07-01T00:21:34;19.10;99.90
7694;DHT22;3889;48.162;11.510;2022-07-01T00:24:03;19.10;99.90
7694;DHT22;3889;48.162;11.510;2022-07-01T00:26:31;19.20;99.90
7694;DHT22;3889;48.162;11.510;2022-07-01T00:28:59;19.20;99.90
7694;DHT22;3889;48.162;11.510;2022-07-01T00:31:26;19.20;99.90
7694;DHT22;3889;48.162;11.510;2022-07-01T00:33:54;19.20;99.90
7694;DHT22;3889;48.162;11.510;2022-07-01T00:36:22;19.20;99.90
7694;DHT22;3889;48.162;11.510;2022-07-01T00:38:57;19.10;99.90
7694;DHT22;3889;48.162;11.510;2022-07-01T00:41:26;19.20;99.90
7694;DHT22;3889;48.162;11.510;2022-07-01T00:43:54;19.20;99.90
7694;DHT22;3889;48.162;11.510;2022-07-01T00:46:24;19.20;99.90
7694;DHT22;3889;48.162;11.510;2022-07-01T00:48:54;19.20;99.90
7694;DHT22;3889;48.162;11.510;2022-07-01T00:51:22;19.20;99.90
7694;DHT22;3889;48.162;11.510;2022-07-01T00:53:51;19.10;99.90
7694;DHT22;3889;48.162;11.510;2022-07-01T00:56:20;19.20;99.90
7694;DHT22;3889;48.162;11.510;2022-07-01T00:58:48;19.20;99.90
7694;DHT22;3889;48.162;11.510;2022-07-01T01:01:16;19.20;99.90
7694;DHT22;3889;48.162;11.510;2022-07-01T01:03:44;19.10;99.90
7694;DHT22;3889;48.162;11.510;2022-07-01T01:06:12;19.10;99.90
7694;DHT22;3889;48.162;11.510;2022-07-01T01:08:40;19.10;99.90
7694;DHT22;3889;48.162;11.510;2022-07-01T01:11:08;19.10;99.90
7694;DHT22;3889;48.162;11.510;2022-07-01T01:13:38;19.10;99.90
7694;DHT22;3889;48.162;11.510;2022-07-01T01:16:06;19.00;99.90
7694;DHT22;3889;48.162;11.510;2022-07-01T01:18:34;19.00;99.90
7694;DHT22;3889;48.162;11.510;2022-07-01T01:21:03;19.00;99.90
7694;DHT22;3889;48.162;11.510;2022-07-01T01:23:31;19.00;99.90
7694;DHT22;3889;48.162;11.510;2022-07-01T01:25:59;19.00;99.90
7694;DHT22;3889;48.162;11.510;2022-07-01T01:28:29;18.90;99.90
7694;DHT22;3889;48.162;11.510;2022-07-01T01:30:57;18.90;99.90
7694;DHT22;3889;48.162;11.510;2022-07-01T01:33:25;19.00;99.90
7694;DHT22;3889;48.162;11.510;2022-07-01T01:35:53;19.00;99.90
7694;DHT22;3889;48.162;11.510;2022-07-01T01:38:22;18.90;99.90
7694;DHT22;3889;48.162;11.510;2022-07-01T01:40:49;18.90;99.90
7694;DHT22;3889;48.162;11.510;2022-07-01T01:43:17;18.90;99.90
7694;DHT22;3889;48.162;11.510;2022-07-01T01:45:45;18.90;99.90
7694;DHT22;3889;48.162;11.510;2022-07-01T01:48:13;18.90;99.90
7694;DHT22;3889;48.162;11.510;2022-07-01T01:50:41;18.90;99.90
7694;DHT22;3889;48.162;11.510;2022-07-01T01:53:09;18.80;99.90
7694;DHT22;3889;48.162;11.510;2022-07-01T01:55:38;18.70;99.90
7694;DHT22;3889;48.162;11.510;2022-07-01T01:58:06;18.80;99.90
7694;DHT22;3889;48.162;11.510;2022-07-01T02:00:34;18.70;99.90
7694;DHT22;3889;48.162;11.510;2022-07-01T02:03:02;18.70;99.90
7694;DHT22;3889;48.162;11.510;2022-07-01T02:05:30;18.60;99.90
7694;DHT22;3889;48.162;11.510;2022-07-01T02:07:58;18.50;99.90
7694;DHT22;3889;48.162;11.510;2022-07-01T02:10:26;18.60;99.90
7694;DHT22;3889;48.162;11.510;2022-07-01T02:12:55;18.50;99.90
7694;DHT22;3889;48.162;11.510;2022-07-01T02:15:24;18.60;99.90
7694;DHT22;3889;48.162;11.510;2022-07-01T02:17:52;18.60;99.90
7694;DHT22;3889;48.162;11.510;2022-07-01T02:20:23;18.50;99.90
7694;DHT22;3889;48.162;11.510;2022-07-01T02:22:51;18.50;99.90
7694;DHT22;3889;48.162;11.510;2022-07-01T02:25:19;18.60;99.90
7694;DHT22;3889;48.162;11.510;2022-07-01T02:27:47;18.60;99.90
7694;DHT22;3889;48.162;11.510;2022-07-01T02:30:16;18.60;99.90
7694;DHT22;3889;48.162;11.510;2022-07-01T02:32:44;18.50;99.90
7694;DHT22;3889;48.162;11.510;2022-07-01T02:35:12;18.50;99.90
7694;DHT22;3889;48.162;11.510;2022-07-01T02:37:40;18.40;99.90
7694;DHT22;3889;48.162;11.510;2022-07-01T02:40:09;18.50;99.90
7694;DHT22;3889;48.162;11.510;2022-07-01T02:42:38;18.50;99.90
7694;DHT22;3889;48.162;11.510;2022-07-01T02:45:07;18.50;99.90
7694;DHT22;3889;48.162;11.510;2022-07-01T02:47:38;18.50;99.90
7694;DHT22;3889;48.162;11.510;2022-07-01T02:50:08;18.50;99.90
7694;DHT22;3889;48.162;11.510;2022-07-01T02:52:37;18.50;99.90
7694;DHT22;3889;48.162;11.510;2022-07-01T02:55:07;18.40;99.90
7694;DHT22;3889;48.162;11.510;2022-07-01T02:57:36;18.40;99.90
7694;DHT22;3889;48.162;11.510;2022-07-01T03:00:06;18.50;99.90
7694;DHT22;3889;48.162;11.510;2022-07-01T03:02:34;18.50;99.90
7694;DHT22;3889;48.162;11.510;2022-07-01T03:05:05;18.60;99.90
7694;DHT22;3889;48.162;11.510;2022-07-01T03:07:33;18.50;99.90
7694;DHT22;3889;48.162;11.510;2022-07-01T03:10:04;18.50;99.90
7694;DHT22;3889;48.162;11.510;2022-07-01T03:12:32;18.60;99.90
7694;DHT22;3889;48.162;11.510;2022-07-01T03:15:04;18.60;99.90
7694;DHT22;3889;48.162;11.510;2022-07-01T03:17:33;18.60;99.90
7694;DHT22;3889;48.162;11.510;2022-07-01T03:20:07;18.50;99.90
7694;DHT22;3889;48.162;11.510;2022-07-01T03:22:36;18.50;99.90
7694;DHT22;3889;48.162;11.510;2022-07-01T03:25:05;18.40;99.90
7694;DHT22;3889;48.162;11.510;2022-07-01T03:27:33;18.40;99.90
7694;DHT22;3889;48.162;11.510;2022-07-01T03:30:04;18.40;99.90
7694;DHT22;3889;48.162;11.510;2022-07-01T03:32:33;18.30;99.90
7694;DHT22;3889;48.162;11.510;2022-07-01T03:35:01;18.30;99.90
7694;DHT22;3889;48.162;11.510;2022-07-01T03:37:51;18.30;99.90
7694;DHT22;3889;48.162;11.510;2022-07-01T03:40:19;18.40;99.90
7694;DHT22;3889;48.162;11.510;2022-07-01T03:42:47;18.30;99.90
7694;DHT22;3889;48.162;11.510;2022-07-01T03:45:15;18.40;99.90
7694;DHT22;3889;48.162;11.510;2022-07-01T03:47:46;18.40;99.90
7694;DHT22;3889;48.162;11.510;2022-07-01T03:50:15;18.40;99.90
7694;DHT22;3889;48.162;11.510;2022-07-01T03:52:43;18.40;99.90
7694;DHT22;3889;48.162;11.510;2022-07-01T03:55:12;18.40;99.90
7694;DHT22;3889;48.162;11.510;2022-07-01T03:57:40;18.30;99.90
7694;DHT22;3889;48.162;11.510;2022-07-01T04:00:09;18.30;99.90
7694;DHT22;3889;48.162;11.510;2022-07-01T04:02:41;18.30;99.90
7694;DHT22;3889;48.162;11.510;2022-07-01T04:05:09;18.30;99.90
7694;DHT22;3889;48.162;11.510;2022-07-01T04:07:37;18.30;99.90
7694;DHT22;3889;48.162;11.510;2022-07-01T04:10:06;18.40;99.90
7694;DHT22;3889;48.162;11.510;2022-07-01T04:12:35;18.30;99.90
7694;DHT22;3889;48.162;11.510;2022-07-01T04:15:04;18.40;99.90
7694;DHT22;3889;48.162;11.510;2022-07-01T04:17:32;18.30;99.90
7694;DHT22;3889;48.162;11.510;2022-07-01T04:20:00;18.30;99.90
7694;DHT22;3889;48.162;11.510;2022-07-01T04:22:27;18.30;99.90
7694;DHT22;3889;48.162;11.510;2022-07-01T04:25:03;18.30;99.90
7694;DHT22;3889;48.162;11.510;2022-07-01T04:27:31;18.40;99.90
7694;DHT22;3889;48.162;11.510;2022-07-01T04:30:01;18.40;99.90
7694;DHT22;3889;48.162;11.510;2022-07-01T04:32:30;18.40;99.90
7694;DHT22;3889;48.162;11.510;2022-07-01T04:34:58;18.50;99.90
7694;DHT22;3889;48.162;11.510;2022-07-01T04:37:26;18.50;99.90
7694;DHT22;3889;48.162;11.510;2022-07-01T04:39:53;18.40;99.90
7694;DHT22;3889;48.162;11.510;2022-07-01T04:42:21;18.40;99.90
7694;DHT22;3889;48.162;11.510;2022-07-01T04:44:48;18.50;99.90
7694;DHT22;3889;48.162;11.510;2022-07-01T04:47:18;18.50;99.90
7694;DHT22;3889;48.162;11.510;2022-07-01T04:49:47;18.40;99.90
7694;DHT22;3889;48.162;11.510;2022-07-01T04:52:15;18.50;99.90
7694;DHT22;3889;48.162;11.510;2022-07-01T04:54:43;18.50;99.90
7694;DHT22;3889;48.162;11.510;2022-07-01T04:57:11;18.50;99.90
7694;DHT22;3889;48.162;11.510;2022-07-01T04:59:39;18.50;99.90
7694;DHT22;3889;48.162;11.510;2022-07-01T05:02:06;18.50;99.90
7694;DHT22;3889;48.162;11.510;2022-07-01T05:04:41;18.50;99.90
7694;DHT22;3889;48.162;11.510;2022-07-01T05:07:09;18.50;99.90
7694;DHT22;3889;48.162;11.510;2022-07-01T05:09:55;18.50;99.90
7694;DHT22;3889;48.162;11.510;2022-07-01T05:12:23;18.50;99.90
7694;DHT22;3889;48.162;11.510;2022-07-01T05:14:51;18.40;99.90
7694;DHT22;3889;48.162;11.510;2022-07-01T05:17:19;18.50;99.90
7694;DHT22;3889;48.162;11.510;2022-07-01T05:20:09;18.50;99.90
7694;DHT22;3889;48.162;11.510;2022-07-01T05:22:55;18.60;99.90
7694;DHT22;3889;48.162;11.510;2022-07-01T05:25:23;18.60;99.90
7694;DHT22;3889;48.162;11.510;2022-07-01T05:27:51;18.50;99.90
7694;DHT22;3889;48.162;11.510;2022-07-01T05:30:21;18.70;99.90
7694;DHT22;3889;48.162;11.510;2022-07-01T05:32:49;18.70;99.90
7694;DHT22;3889;48.162;11.510;2022-07-01T05:35:18;18.60;99.90
7694;DHT22;3889;48.162;11.510;2022-07-01T05:37:46;18.70;99.90
7694;DHT22;3889;48.162;11.510;2022-07-01T05:40:14;18.70;99.90
7694;DHT22;3889;48.162;11.510;2022-07-01T05:42:42;18.70;99.90
7694;DHT22;3889;48.162;11.510;2022-07-01T05:45:10;18.80;99.90
7694;DHT22;3889;48.162;11.510;2022-07-01T05:47:38;18.70;99.90
7694;DHT22;3889;48.162;11.510;2022-07-01T05:50:06;18.70;99.90
7694;DHT22;3889;48.162;11.510;2022-07-01T05:52:36;18.70;99.90
7694;DHT22;3889;48.162;11.510;2022-07-01T05:55:04;18.80;99.90
7694;DHT22;3889;48.162;11.510;2022-07-01T05:57:33;18.80;99.90
7694;DHT22;3889;48.162;11.510;2022-07-01T06:00:01;18.90;99.90
7694;DHT22;3889;48.162;11.510;2022-07-01T06:02:29;19.00;99.90
7694;DHT22;3889;48.162;11.510;2022-07-01T06:04:57;19.00;99.90
7694;DHT22;3889;48.162;11.510;2022-07-01T06:07:26;19.00;99.90
7694;DHT22;3889;48.162;11.510;2022-07-01T06:09:56;19.00;99.90
7694;DHT22;3889;48.162;11.510;2022-07-01T06:12:24;19.10;99.90
7694;DHT22;3889;48.162;11.510;2022-07-01T06:14:52;19.20;99.90
7694;DHT22;3889;48.162;11.510;2022-07-01T06:17:20;19.50;99.90
7694;DHT22;3889;48.162;11.510;2022-07-01T06:19:48;19.80;99.90
7694;DHT22;3889;48.162;11.510;2022-07-01T06:22:16;19.90;99.90
7694;DHT22;3889;48.162;11.510;2022-07-01T06:24:45;19.70;99.90
7694;DHT22;3889;48.162;11.510;2022-07-01T06:27:15;19.50;99.90
7694;DHT22;3889;48.162;11.510;2022-07-01T06:29:42;19.40;99.90
7694;DHT22;3889;48.162;11.510;2022-07-01T06:32:10;19.20;99.90
7694;DHT22;3889;48.162;11.510;2022-07-01T06:34:38;19.20;99.90
7694;DHT22;3889;48.162;11.510;2022-07-01T06:37:07;19.10;99.90
7694;DHT22;3889;48.162;11.510;2022-07-01T06:39:35;19.10;99.90
7694;DHT22;3889;48.162;11.510;2022-07-01T06:42:03;18.90;99.90
7694;DHT22;3889;48.162;11.510;2022-07-01T06:44:32;18.90;99.90
7694;DHT22;3889;48.162;11.510;2022-07-01T06:47:00;19.10;99.90
7694;DHT22;3889;48.162;11.510;2022-07-01T06:49:28;19.20;99.90
7694;DHT22;3889;48.162;11.510;2022-07-01T06:51:56;19.20;99.90
7694;DHT22;3889;48.162;11.510;2022-07-01T06:54:24;19.20;99.90
7694;DHT22;3889;48.162;11.510;2022-07-01T06:56:52;19.20;99.90
7694;DHT22;3889;48.162;11.510;2022-07-01T06:59:20;19.20;99.90
7694;DHT22;3889;48.162;11.510;2022-07-01T07:01:49;19.20;99.90
7694;DHT22;3889;48.162;11.510;2022-07-01T07:04:17;19.10;99.90
7694;DHT22;3889;48.162;11.510;2022-07-01T07:07:05;19.10;99.90
7694;DHT22;3889;48.162;11.510;2022-07-01T07:09:33;19.00;99.90
7694;DHT22;3889;48.162;11.510;2022-07-01T07:12:01;19.00;99.90
7694;DHT22;3889;48.162;11.510;2022-07-01T07:14:29;19.00;99.90
7694;DHT22;3889;48.162;11.510;2022-07-01T07:16:59;19.10;99.90
7694;DHT22;3889;48.162;11.510;2022-07-01T07:19:27;19.00;99.90
7694;DHT22;3889;48.162;11.510;2022-07-01T07:21:54;18.90;99.90
7694;DHT22;3889;48.162;11.510;2022-07-01T07:24:23;18.80;99.90
7694;DHT22;3889;48.162;11.510;2022-07-01T07:26:51;18.60;99.90
7694;DHT22;3889;48.162;11.510;2022-07-01T07:29:19;18.50;99.90
7694;DHT22;3889;48.162;11.510;2022-07-01T07:31:46;18.40;99.90
7694;DHT22;3889;48.162;11.510;2022-07-01T07:34:16;18.30;99.90
7694;DHT22;3889;48.162;11.510;2022-07-01T07:36:43;18.00;99.90
7694;DHT22;3889;48.162;11.510;2022-07-01T07:39:11;18.10;99.90
7694;DHT22;3889;48.162;11.510;2022-07-01T07:41:39;18.00;99.90
7694;DHT22;3889;48.162;11.510;2022-07-01T07:44:07;17.90;99.90
7694;DHT22;3889;48.162;11.510;2022-07-01T07:46:35;17.80;99.90
7694;DHT22;3889;48.162;11.510;2022-07-01T07:49:03;17.50;99.90
7694;DHT22;3889;48.162;11.510;2022-07-01T07:51:32;17.70;99.90
7694;DHT22;3889;48.162;11.510;2022-07-01T07:54:00;17.70;99.90
7694;DHT22;3889;48.162;11.510;2022-07-01T07:56:29;17.60;99.90
7694;DHT22;3889;48.162;11.510;2022-07-01T07:58:57;17.40;99.90
7694;DHT22;3889;48.162;11.510;2022-07-01T08:01:25;17.40;99.90
7694;DHT22;3889;48.162;11.510;2022-07-01T08:03:53;17.20;99.90
7694;DHT22;3889;48.162;11.510;2022-07-01T08:06:21;17.00;99.90
7694;DHT22;3889;48.162;11.510;2022-07-01T08:08:51;16.80;99.90
7694;DHT22;3889;48.162;11.510;2022-07-01T08:11:19;16.80;99.90
7694;DHT22;3889;48.162;11.510;2022-07-01T08:13:46;16.60;99.90
7694;DHT22;3889;48.162;11.510;2022-07-01T08:16:14;16.60;99.90
7694;DHT22;3889;48.162;11.510;2022-07-01T08:18:42;16.40;99.90
7694;DHT22;3889;48.162;11.510;2022-07-01T08:21:10;16.10;99.90
7694;DHT22;3889;48.162;11.510;2022-07-01T08:23:38;15.80;99.90
7694;DHT22;3889;48.162;11.510;2022-07-01T08:26:07;15.50;99.90
7694;DHT22;3889;48.162;11.510;2022-07-01T08:28:38;15.40;99.90
7694;DHT22;3889;48.162;11.510;2022-07-01T08:31:06;15.40;99.90
7694;DHT22;3889;48.162;11.510;2022-07-01T08:33:33;15.40;99.90
7694;DHT22;3889;48.162;11.510;2022-07-01T08:36:04;15.30;99.90
7694;DHT22;3889;48.162;11.510;2022-07-01T08:38:32;15.20;99.90
7694;DHT22;3889;48.162;11.510;2022-07-01T08:41:01;15.10;99.90
7694;DHT22;3889;48.162;11.510;2022-07-01T08:43:31;15.10;99.90
7694;DHT22;3889;48.162;11.510;2022-07-01T08:46:00;15.00;99.90
7694;DHT22;3889;48.162;11.510;2022-07-01T08:48:30;15.00;99.90
7694;DHT22;3889;48.162;11.510;2022-07-01T08:50:58;15.00;99.90
7694;DHT22;3889;48.162;11.510;2022-07-01T08:53:26;15.00;99.90
7694;DHT22;3889;48.162;11.510;2022-07-01T08:55:54;15.10;99.90
7694;DHT22;3889;48.162;11.510;2022-07-01T08:58:40;15.10;99.90
7694;DHT22;3889;48.162;11.510;2022-07-01T09:01:12;15.20;99.90
7694;DHT22;3889;48.162;11.510;2022-07-01T09:03:41;15.10;99.90
7694;DHT22;3889;48.162;11.510;2022-07-01T09:06:13;15.20;99.90
7694;DHT22;3889;48.162;11.510;2022-07-01T09:08:42;15.40;99.90
7694;DHT22;3889;48.162;11.510;2022-07-01T09:11:14;15.40;99.90
7694;DHT22;3889;48.162;11.510;2022-07-01T09:13:44;15.30;99.90
7694;DHT22;3889;48.162;11.510;2022-07-01T09:16:13;15.40;99.90
7694;DHT22;3889;48.162;11.510;2022-07-01T09:18:59;15.40;99.90
7694;DHT22;3889;48.162;11.510;2022-07-01T09:21:28;15.30;99.90
7694;DHT22;3889;48.162;11.510;2022-07-01T09:23:56;15.20;99.90
7694;DHT22;3889;48.162;11.510;2022-07-01T09:26:24;15.20;99.90
7694;DHT22;3889;48.162;11.510;2022-07-01T09:28:56;15.20;99.90
7694;DHT22;3889;48.162;11.510;2022-07-01T09:31:30;15.10;99.90
7694;DHT22;3889;48.162;11.510;2022-07-01T09:34:06;15.00;99.90
7694;DHT22;3889;48.162;11.510;2022-07-01T09:36:38;15.10;99.90
7694;DHT22;3889;48.162;11.510;2022-07-01T09:39:07;15.00;99.90
7694;DHT22;3889;48.162;11.510;2022-07-01T09:41:55;15.10;99.90
7694;DHT22;3889;48.162;11.510;2022-07-01T09:44:24;15.10;99.90
7694;DHT22;3889;48.162;11.510;2022-07-01T09:46:56;15.00;99.90
7694;DHT22;3889;48.162;11.510;2022-07-01T09:49:25;15.00;99.90
7694;DHT22;3889;48.162;11.510;2022-07-01T09:51:53;15.00;99.90
7694;DHT22;3889;48.162;11.510;2022-07-01T09:54:21;15.10;99.90
7694;DHT22;3889;48.162;11.510;2022-07-01T09:56:49;15.20;99.90
7694;DHT22;3889;48.162;11.510;2022-07-01T09:59:17;15.30;99.90
7694;DHT22;3889;48.162;11.510;2022-07-01T10:01:46;15.20;99.90
7694;DHT22;3889;48.162;11.510;2022-07-01T10:04:16;15.30;99.90
7694;DHT22;3889;48.162;11.510;2022-07-01T10:07:09;15.30;99.90
7694;DHT22;3889;48.162;11.510;2022-07-01T10:10:07;15.30;99.90
7694;DHT22;3889;48.162;11.510;2022-07-01T10:12:40;15.50;99.90
7694;DHT22;3889;48.162;11.510;2022-07-01T10:15:11;15.50;99.90
7694;DHT22;3889;48.162;11.510;2022-07-01T10:17:45;15.50;99.90
7694;DHT22;3889;48.162;11.510;2022-07-01T10:20:15;15.50;99.90
7694;DHT22;3889;48.162;11.510;2022-07-01T10:22:49;15.50;99.90
7694;DHT22;3889;48.162;11.510;2022-07-01T10:25:31;15.50;99.90
7694;DHT22;3889;48.162;11.510;2022-07-01T10:28:18;15.70;99.90
7694;DHT22;3889;48.162;11.510;2022-07-01T10:30:52;15.70;99.90
7694;DHT22;3889;48.162;11.510;2022-07-01T10:33:39;15.80;99.90
7694;DHT22;3889;48.162;11.510;2022-07-01T10:36:10;15.90;99.90
7694;DHT22;3889;48.162;11.510;2022-07-01T10:39:16;15.90;99.90
7694;DHT22;3889;48.162;11.510;2022-07-01T10:42:01;16.00;99.90
7694;DHT22;3889;48.162;11.510;2022-07-01T10:45:08;16.00;99.90
7694;DHT22;3889;48.162;11.510;2022-07-01T10:47:37;16.00;99.90
7694;DHT22;3889;48.162;11.510;2022-07-01T10:50:09;15.90;99.90
7694;DHT22;3889;48.162;11.510;2022-07-01T10:52:37;15.80;99.90
7694;DHT22;3889;48.162;11.510;2022-07-01T10:55:09;15.90;99.90
7694;DHT22;3889;48.162;11.510;2022-07-01T10:57:40;15.90;99.90
7694;DHT22;3889;48.162;11.510;2022-07-01T11:00:29;16.00;99.90
7694;DHT22;3889;48.162;11.510;2022-07-01T11:03:19;15.90;99.90
7694;DHT22;3889;48.162;11.510;2022-07-01T11:05:52;15.90;99.90
7694;DHT22;3889;48.162;11.510;2022-07-01T11:08:20;15.80;99.90
7694;DHT22;3889;48.162;11.510;2022-07-01T11:10:57;15.70;99.90
7694;DHT22;3889;48.162;11.510;2022-07-01T11:13:26;15.70;99.90
7694;DHT22;3889;48.162;11.510;2022-07-01T11:15:55;15.60;99.90
7694;DHT22;3889;48.162;11.510;2022-07-01T11:18:24;15.60;99.90
7694;DHT22;3889;48.162;11.510;2022-07-01T11:21:05;15.50;99.90
7694;DHT22;3889;48.162;11.510;2022-07-01T11:23:33;15.30;99.90
7694;DHT22;3889;48.162;11.510;2022-07-01T11:26:07;15.30;99.90
7694;DHT22;3889;48.162;11.510;2022-07-01T11:28:40;15.30;99.90
7694;DHT22;3889;48.162;11.510;2022-07-01T11:31:08;15.30;99.90
7694;DHT22;3889;48.162;11.510;2022-07-01T11:33:37;15.40;99.90
7694;DHT22;3889;48.162;11.510;2022-07-01T11:36:08;15.40;99.90
7694;DHT22;3889;48.162;11.510;2022-07-01T11:38:54;15.40;99.90
7694;DHT22;3889;48.162;11.510;2022-07-01T11:41:40;15.30;99.90
7694;DHT22;3889;48.162;11.510;2022-07-01T11:44:08;15.40;99.90
7694;DHT22;3889;48.162;11.510;2022-07-01T11:46:36;15.40;99.90
7694;DHT22;3889;48.162;11.510;2022-07-01T11:49:11;15.50;99.90
7694;DHT22;3889;48.162;11.510;2022-07-01T11:51:41;15.40;99.90
7694;DHT22;3889;48.162;11.510;2022-07-01T11:54:19;15.30;99.90
7694;DHT22;3889;48.162;11.510;2022-07-01T11:56:49;15.30;99.90
7694;DHT22;3889;48.162;11.510;2022-07-01T11:59:17;15.30;99.90
7694;DHT22;3889;48.162;11.510;2022-07-01T12:01:51;15.50;99.90
7694;DHT22;3889;48.162;11.510;2022-07-01T12:04:20;15.60;99.90
7694;DHT22;3889;48.162;11.510;2022-07-01T12:06:50;15.70;99.90
7694;DHT22;3889;48.162;11.510;2022-07-01T12:09:18;15.80;99.90
7694;DHT22;3889;48.162;11.510;2022-07-01T12:11:48;15.70;99.90
7694;DHT22;3889;48.162;11.510;2022-07-01T12:14:20;15.80;99.90
7694;DHT22;3889;48.162;11.510;2022-07-01T12:16:51;15.80;99.90
7694;DHT22;3889;48.162;11.510;2022-07-01T12:19:19;15.70;99.90
7694;DHT22;3889;48.162;11.510;2022-07-01T12:21:51;15.70;99.90
7694;DHT22;3889;48.162;11.510;2022-07-01T12:24:20;15.70;99.90
7694;DHT22;3889;48.162;11.510;2022-07-01T12:26:51;15.70;99.90
7694;DHT22;3889;48.162;11.510;2022-07-01T12:29:21;15.60;99.90
7694;DHT22;3889;48.162;11.510;2022-07-01T12:31:57;15.60;99.90
7694;DHT22;3889;48.162;11.510;2022-07-01T12:34:39;15.80;99.90
7694;DHT22;3889;48.162;11.510;2022-07-01T12:37:10;15.80;99.90
7694;DHT22;3889;48.162;11.510;2022-07-01T12:39:44;15.90;99.90
7694;DHT22;3889;48.162;11.510;2022-07-01T12:42:24;15.90;99.90
7694;DHT22;3889;48.162;11.510;2022-07-01T12:44:54;16.00;99.90
7694;DHT22;3889;48.162;11.510;2022-07-01T12:47:25;15.90;99.90
7694;DHT22;3889;48.162;11.510;2022-07-01T12:50:12;15.90;99.90
7694;DHT22;3889;48.162;11.510;2022-07-01T12:52:42;15.80;99.90
7694;DHT22;3889;48.162;11.510;2022-07-01T12:55:14;15.60;99.90
7694;DHT22;3889;48.162;11.510;2022-07-01T12:57:43;15.60;99.90
7694;DHT22;3889;48.162;11.510;2022-07-01T13:00:12;15.60;99.90
7694;DHT22;3889;48.162;11.510;2022-07-01T13:02:40;15.60;99.90
7694;DHT22;3889;48.162;11.510;2022-07-01T13:05:08;15.50;99.90
7694;DHT22;3889;48.162;11.510;2022-07-01T13:07:37;15.60;99.90
7694;DHT22;3889;48.162;11.510;2022-07-01T13:10:13;15.70;99.90
7694;DHT22;3889;48.162;11.510;2022-07-01T13:12:41;15.80;99.90
7694;DHT22;3889;48.162;11.510;2022-07-01T13:15:11;15.90;99.90
7694;DHT22;3889;48.162;11.510;2022-07-01T13:17:39;15.80;99.90
7694;DHT22;3889;48.162;11.510;2022-07-01T13:20:08;15.60;99.90
7694;DHT22;3889;48.162;11.510;2022-07-01T13:22:36;15.70;99.90
7694;DHT22;3889;48.162;11.510;2022-07-01T13:25:05;15.70;99.90
7694;DHT22;3889;48.162;11.510;2022-07-01T13:27:35;15.80;99.90
7694;DHT22;3889;48.162;11.510;2022-07-01T13:30:04;15.80;99.90
7694;DHT22;3889;48.162;11.510;2022-07-01T13:32:33;15.80;99.90
7694;DHT22;3889;48.162;11.510;2022-07-01T13:35:01;15.80;99.90
7694;DHT22;3889;48.162;11.510;2022-07-01T13:37:29;15.70;99.90
7694;DHT22;3889;48.162;11.510;2022-07-01T13:39:57;15.70;99.90
7694;DHT22;3889;48.162;11.510;2022-07-01T13:42:25;15.80;99.90
7694;DHT22;3889;48.162;11.510;2022-07-01T13:44:55;15.70;99.90
7694;DHT22;3889;48.162;11.510;2022-07-01T13:47:23;15.70;99.90
7694;DHT22;3889;48.162;11.510;2022-07-01T13:49:51;15.80;99.90
7694;DHT22;3889;48.162;11.510;2022-07-01T13:52:19;15.80;99.90
7694;DHT22;3889;48.162;11.510;2022-07-01T13:54:47;15.80;99.90
7694;DHT22;3889;48.162;11.510;2022-07-01T13:57:16;15.70;99.90
7694;DHT22;3889;48.162;11.510;2022-07-01T13:59:44;15.60;99.90
7694;DHT22;3889;48.162;11.510;2022-07-01T14:02:14;15.70;99.90
7694;DHT22;3889;48.162;11.510;2022-07-01T14:04:44;15.70;99.90
7694;DHT22;3889;48.162;11.510;2022-07-01T14:07:12;15.80;99.90
7694;DHT22;3889;48.162;11.510;2022-07-01T14:09:40;15.70;99.90
7694;DHT22;3889;48.162;11.510;2022-07-01T14:12:10;15.50;99.90
7694;DHT22;3889;48.162;11.510;2022-07-01T14:14:47;15.50;99.90
7694;DHT22;3889;48.162;11.510;2022-07-01T14:17:16;15.40;99.90
7694;DHT22;3889;48.162;11.510;2022-07-01T14:19:44;15.50;99.90
7694;DHT22;3889;48.162;11.510;2022-07-01T14:22:12;15.50;99.90
7694;DHT22;3889;48.162;11.510;2022-07-01T14:24:40;15.60;99.90
7694;DHT22;3889;48.162;11.510;2022-07-01T14:27:08;15.50;99.90
7694;DHT22;3889;48.162;11.510;2022-07-01T14:29:36;15.50;99.90
7694;DHT22;3889;48.162;11.510;2022-07-01T14:32:05;15.60;99.90
7694;DHT22;3889;48.162;11.510;2022-07-01T14:34:34;15.50;99.90
7694;DHT22;3889;48.162;11.510;2022-07-01T14:37:03;15.50;99.90
7694;DHT22;3889;48.162;11.510;2022-07-01T14:39:31;15.30;99.90
7694;DHT22;3889;48.162;11.510;2022-07-01T14:41:59;15.40;99.90
7694;DHT22;3889;48.162;11.510;2022-07-01T14:44:28;15.40;99.90
7694;DHT22;3889;48.162;11.510;2022-07-01T14:46:56;15.30;99.90
7694;DHT22;3889;48.162;11.510;2022-07-01T14:49:24;15.50;99.90
7694;DHT22;3889;48.162;11.510;2022-07-01T14:51:53;15.50;99.90
7694;DHT22;3889;48.162;11.510;2022-07-01T14:54:21;15.60;99.90
7694;DHT22;3889;48.162;11.510;2022-07-01T14:56:49;15.40;99.90
7694;DHT22;3889;48.162;11.510;2022-07-01T14:59:17;15.40;99.90
7694;DHT22;3889;48.162;11.510;2022-07-01T15:01:45;15.50;99.90
7694;DHT22;3889;48.162;11.510;2022-07-01T15:04:13;15.40;99.90
7694;DHT22;3889;48.162;11.510;2022-07-01T15:06:41;15.50;99.90
7694;DHT22;3889;48.162;11.510;2022-07-01T15:09:10;15.50;99.90
7694;DHT22;3889;48.162;11.510;2022-07-01T15:11:38;15.60;99.90
7694;DHT22;3889;48.162;11.510;2022-07-01T15:14:06;15.50;99.90
7694;DHT22;3889;48.162;11.510;2022-07-01T15:16:34;15.70;99.90
7694;DHT22;3889;48.162;11.510;2022-07-01T15:19:02;15.60;99.90
7694;DHT22;3889;48.162;11.510;2022-07-01T15:21:31;15.70;99.90
7694;DHT22;3889;48.162;11.510;2022-07-01T15:23:59;15.80;99.90
7694;DHT22;3889;48.162;11.510;2022-07-01T15:26:28;15.90;99.90
7694;DHT22;3889;48.162;11.510;2022-07-01T15:28:56;16.00;99.90
7694;DHT22;3889;48.162;11.510;2022-07-01T15:31:24;16.20;99.90
7694;DHT22;3889;48.162;11.510;2022-07-01T15:34:13;16.20;99.90
7694;DHT22;3889;48.162;11.510;2022-07-01T15:36:42;16.00;99.90
7694;DHT22;3889;48.162;11.510;2022-07-01T15:39:10;16.10;99.90
7694;DHT22;3889;48.162;11.510;2022-07-01T15:41:40;16.10;99.90
7694;DHT22;3889;48.162;11.510;2022-07-01T15:44:10;16.30;99.90
7694;DHT22;3889;48.162;11.510;2022-07-01T15:46:38;16.30;99.90
7694;DHT22;3889;48.162;11.510;2022-07-01T15:49:06;16.40;99.90
7694;DHT22;3889;48.162;11.510;2022-07-01T15:51:34;16.30;99.90
7694;DHT22;3889;48.162;11.510;2022-07-01T15:54:03;16.40;99.90
7694;DHT22;3889;48.162;11.510;2022-07-01T15:56:31;16.30;99.90
7694;DHT22;3889;48.162;11.510;2022-07-01T15:59:03;16.10;99.90
7694;DHT22;3889;48.162;11.510;2022-07-01T16:01:31;16.00;99.90
7694;DHT22;3889;48.162;11.510;2022-07-01T16:03:59;15.90;99.90